Weather at Alentejo Air Park [CLOSED]

Public forecast

Using degrees Celsius for public forecast. Weather courtesy of forecast.io.

Closest aviation weather report (METAR) to Alentejo Air Park

Closest report is Faro Airport, 45.7 nm (84.7 km) SE.

2024/07/25 09:30 (retrieved 21 minutes ago)

LPFR 250930Z 25009KT CAVOK 26/17 Q1011

Closest aviation forecast (TAF) to Alentejo Air Park

Closest forecast is Faro Airport, 45.7 nm (84.7 km) SE.

2024/07/25 06:18 (retrieved 4 hours ago)

TAF LPFR 250500Z 2506/2606 29005KT CAVOK BECMG 2509/2511 26015KT BECMG 2518/2520 30012KT